sensor_id;sensor_type;location;lat;lon;timestamp;temperature;humidity
43697;DHT22;29301;47.620;19.560;2023-07-09T00:01:51;19.40;54.00
43697;DHT22;29301;47.620;19.560;2023-07-09T00:04:17;19.20;54.30
43697;DHT22;29301;47.620;19.560;2023-07-09T00:06:44;19.10;55.00
43697;DHT22;29301;47.620;19.560;2023-07-09T00:09:15;19.10;55.80
43697;DHT22;29301;47.620;19.560;2023-07-09T00:11:42;19.10;55.90
43697;DHT22;29301;47.620;19.560;2023-07-09T00:14:13;19.10;55.90
43697;DHT22;29301;47.620;19.560;2023-07-09T00:16:40;19.00;55.80
43697;DHT22;29301;47.620;19.560;2023-07-09T00:19:21;19.00;55.90
43697;DHT22;29301;47.620;19.560;2023-07-09T00:21:50;19.00;55.90
43697;DHT22;29301;47.620;19.560;2023-07-09T00:24:18;19.00;56.20
43697;DHT22;29301;47.620;19.560;2023-07-09T00:26:44;18.90;56.30
43697;DHT22;29301;47.620;19.560;2023-07-09T00:29:12;18.90;56.30
43697;DHT22;29301;47.620;19.560;2023-07-09T00:31:39;18.90;56.50
43697;DHT22;29301;47.620;19.560;2023-07-09T00:34:08;18.90;56.60
43697;DHT22;29301;47.620;19.560;2023-07-09T00:36:34;18.90;56.80
43697;DHT22;29301;47.620;19.560;2023-07-09T00:39:01;18.90;56.80
43697;DHT22;29301;47.620;19.560;2023-07-09T00:41:33;18.80;57.00
43697;DHT22;29301;47.620;19.560;2023-07-09T00:52:27;18.80;57.20
43697;DHT22;29301;47.620;19.560;2023-07-09T00:54:56;18.90;57.10
43697;DHT22;29301;47.620;19.560;2023-07-09T00:57:25;18.90;56.80
43697;DHT22;29301;47.620;19.560;2023-07-09T00:59:56;18.90;57.10
43697;DHT22;29301;47.620;19.560;2023-07-09T01:02:23;18.80;57.30
43697;DHT22;29301;47.620;19.560;2023-07-09T01:04:55;18.80;57.50
43697;DHT22;29301;47.620;19.560;2023-07-09T01:07:23;18.80;57.50
43697;DHT22;29301;47.620;19.560;2023-07-09T01:09:49;18.70;57.50
43697;DHT22;29301;47.620;19.560;2023-07-09T01:12:16;18.70;57.70
43697;DHT22;29301;47.620;19.560;2023-07-09T01:14:42;18.70;57.90
43697;DHT22;29301;47.620;19.560;2023-07-09T01:17:09;18.70;58.40
43697;DHT22;29301;47.620;19.560;2023-07-09T01:19:40;18.60;58.80
43697;DHT22;29301;47.620;19.560;2023-07-09T01:22:15;18.70;59.10
43697;DHT22;29301;47.620;19.560;2023-07-09T01:27:28;18.60;59.70
43697;DHT22;29301;47.620;19.560;2023-07-09T01:29:56;18.60;59.70
43697;DHT22;29301;47.620;19.560;2023-07-09T01:32:23;18.50;59.70
43697;DHT22;29301;47.620;19.560;2023-07-09T01:34:53;18.50;59.60
43697;DHT22;29301;47.620;19.560;2023-07-09T01:37:24;18.50;59.50
43697;DHT22;29301;47.620;19.560;2023-07-09T01:39:51;18.50;59.20
43697;DHT22;29301;47.620;19.560;2023-07-09T01:42:18;18.50;59.30
43697;DHT22;29301;47.620;19.560;2023-07-09T01:44:48;18.50;59.20
43697;DHT22;29301;47.620;19.560;2023-07-09T01:47:15;18.60;59.20
43697;DHT22;29301;47.620;19.560;2023-07-09T01:49:42;18.60;59.10
43697;DHT22;29301;47.620;19.560;2023-07-09T01:52:13;18.60;59.10
43697;DHT22;29301;47.620;19.560;2023-07-09T01:54:39;18.60;59.30
43697;DHT22;29301;47.620;19.560;2023-07-09T01:57:23;18.60;59.40
43697;DHT22;29301;47.620;19.560;2023-07-09T01:59:53;18.60;59.50
43697;DHT22;29301;47.620;19.560;2023-07-09T02:02:21;18.50;59.60
43697;DHT22;29301;47.620;19.560;2023-07-09T02:04:51;18.50;59.70
43697;DHT22;29301;47.620;19.560;2023-07-09T02:07:18;18.50;59.80
43697;DHT22;29301;47.620;19.560;2023-07-09T02:09:45;18.40;59.80
43697;DHT22;29301;47.620;19.560;2023-07-09T02:12:12;18.40;59.60
43697;DHT22;29301;47.620;19.560;2023-07-09T02:14:39;18.40;59.40
43697;DHT22;29301;47.620;19.560;2023-07-09T02:17:05;18.40;59.30
43697;DHT22;29301;47.620;19.560;2023-07-09T02:19:31;18.40;59.30
43697;DHT22;29301;47.620;19.560;2023-07-09T02:21:57;18.40;59.30
43697;DHT22;29301;47.620;19.560;2023-07-09T02:24:23;18.30;59.40
43697;DHT22;29301;47.620;19.560;2023-07-09T02:27:01;18.30;59.50
43697;DHT22;29301;47.620;19.560;2023-07-09T02:29:28;18.40;59.50
43697;DHT22;29301;47.620;19.560;2023-07-09T02:31:57;18.40;59.20
43697;DHT22;29301;47.620;19.560;2023-07-09T02:34:24;18.50;58.80
43697;DHT22;29301;47.620;19.560;2023-07-09T02:36:55;18.50;58.80
43697;DHT22;29301;47.620;19.560;2023-07-09T02:39:22;18.40;58.50
43697;DHT22;29301;47.620;19.560;2023-07-09T02:41:49;18.50;58.40
43697;DHT22;29301;47.620;19.560;2023-07-09T02:44:15;18.50;58.50
43697;DHT22;29301;47.620;19.560;2023-07-09T02:46:41;18.30;58.50
43697;DHT22;29301;47.620;19.560;2023-07-09T02:49:09;18.30;58.70
43697;DHT22;29301;47.620;19.560;2023-07-09T02:51:35;18.30;59.30
43697;DHT22;29301;47.620;19.560;2023-07-09T02:54:01;18.30;58.90
43697;DHT22;29301;47.620;19.560;2023-07-09T02:56:28;18.10;59.40
43697;DHT22;29301;47.620;19.560;2023-07-09T02:58:53;18.00;60.00
43697;DHT22;29301;47.620;19.560;2023-07-09T03:01:19;18.00;60.70
43697;DHT22;29301;47.620;19.560;2023-07-09T03:03:51;17.90;61.10
43697;DHT22;29301;47.620;19.560;2023-07-09T03:06:19;17.90;61.30
43697;DHT22;29301;47.620;19.560;2023-07-09T03:08:45;18.00;61.00
43697;DHT22;29301;47.620;19.560;2023-07-09T03:11:12;18.00;61.00
43697;DHT22;29301;47.620;19.560;2023-07-09T03:13:38;18.00;61.30
43697;DHT22;29301;47.620;19.560;2023-07-09T03:16:04;17.90;61.70
43697;DHT22;29301;47.620;19.560;2023-07-09T03:18:30;17.90;62.10
43697;DHT22;29301;47.620;19.560;2023-07-09T03:20:56;17.80;62.80
43697;DHT22;29301;47.620;19.560;2023-07-09T03:23:22;17.80;62.80
43697;DHT22;29301;47.620;19.560;2023-07-09T03:25:47;17.90;63.10
43697;DHT22;29301;47.620;19.560;2023-07-09T03:28:13;17.90;62.90
43697;DHT22;29301;47.620;19.560;2023-07-09T03:30:43;17.90;62.80
43697;DHT22;29301;47.620;19.560;2023-07-09T03:33:10;17.90;62.90
43697;DHT22;29301;47.620;19.560;2023-07-09T03:35:36;17.80;63.30
43697;DHT22;29301;47.620;19.560;2023-07-09T03:38:04;17.70;63.80
43697;DHT22;29301;47.620;19.560;2023-07-09T03:40:30;17.70;64.50
43697;DHT22;29301;47.620;19.560;2023-07-09T03:42:56;17.60;64.90
43697;DHT22;29301;47.620;19.560;2023-07-09T03:45:21;17.50;65.30
43697;DHT22;29301;47.620;19.560;2023-07-09T03:47:47;17.50;65.90
43697;DHT22;29301;47.620;19.560;2023-07-09T03:50:13;17.50;66.10
43697;DHT22;29301;47.620;19.560;2023-07-09T03:52:39;17.50;66.30
43697;DHT22;29301;47.620;19.560;2023-07-09T03:55:04;17.50;66.70
43697;DHT22;29301;47.620;19.560;2023-07-09T03:57:31;17.50;66.90
43697;DHT22;29301;47.620;19.560;2023-07-09T03:59:57;17.60;67.00
43697;DHT22;29301;47.620;19.560;2023-07-09T04:02:22;17.60;66.90
43697;DHT22;29301;47.620;19.560;2023-07-09T04:04:48;17.60;67.20
43697;DHT22;29301;47.620;19.560;2023-07-09T04:07:14;17.70;67.20
43697;DHT22;29301;47.620;19.560;2023-07-09T04:09:41;17.80;67.10
43697;DHT22;29301;47.620;19.560;2023-07-09T04:12:07;17.80;66.80
43697;DHT22;29301;47.620;19.560;2023-07-09T04:14:34;17.90;66.50
43697;DHT22;29301;47.620;19.560;2023-07-09T04:17:00;18.00;66.50
43697;DHT22;29301;47.620;19.560;2023-07-09T04:19:25;18.00;66.40
43697;DHT22;29301;47.620;19.560;2023-07-09T04:21:51;18.00;66.40
43697;DHT22;29301;47.620;19.560;2023-07-09T04:24:18;18.00;65.90
43697;DHT22;29301;47.620;19.560;2023-07-09T04:26:44;18.00;66.00
43697;DHT22;29301;47.620;19.560;2023-07-09T04:29:10;18.00;66.00
43697;DHT22;29301;47.620;19.560;2023-07-09T04:31:36;18.00;66.30
43697;DHT22;29301;47.620;19.560;2023-07-09T04:34:03;18.00;66.80
43697;DHT22;29301;47.620;19.560;2023-07-09T04:36:29;18.00;67.30
43697;DHT22;29301;47.620;19.560;2023-07-09T04:38:55;18.00;67.40
43697;DHT22;29301;47.620;19.560;2023-07-09T04:41:21;17.90;68.10
43697;DHT22;29301;47.620;19.560;2023-07-09T04:43:46;17.90;69.50
43697;DHT22;29301;47.620;19.560;2023-07-09T04:46:12;17.90;70.10
43697;DHT22;29301;47.620;19.560;2023-07-09T04:48:38;17.90;70.80
43697;DHT22;29301;47.620;19.560;2023-07-09T04:51:04;17.90;71.10
43697;DHT22;29301;47.620;19.560;2023-07-09T04:53:30;18.00;71.20
43697;DHT22;29301;47.620;19.560;2023-07-09T04:55:56;18.00;71.30
43697;DHT22;29301;47.620;19.560;2023-07-09T04:58:21;18.10;71.10
43697;DHT22;29301;47.620;19.560;2023-07-09T05:00:47;18.10;71.20
43697;DHT22;29301;47.620;19.560;2023-07-09T05:03:13;18.20;71.00
43697;DHT22;29301;47.620;19.560;2023-07-09T05:05:45;18.30;70.90
43697;DHT22;29301;47.620;19.560;2023-07-09T05:08:12;18.40;71.10
43697;DHT22;29301;47.620;19.560;2023-07-09T05:10:42;18.50;70.90
43697;DHT22;29301;47.620;19.560;2023-07-09T05:13:08;18.70;70.00
43697;DHT22;29301;47.620;19.560;2023-07-09T05:15:34;18.70;69.80
43697;DHT22;29301;47.620;19.560;2023-07-09T05:17:59;18.80;70.20
43697;DHT22;29301;47.620;19.560;2023-07-09T05:20:25;18.90;70.20
43697;DHT22;29301;47.620;19.560;2023-07-09T05:22:51;18.90;70.70
43697;DHT22;29301;47.620;19.560;2023-07-09T05:25:17;19.00;70.90
43697;DHT22;29301;47.620;19.560;2023-07-09T05:27:43;19.10;70.80
43697;DHT22;29301;47.620;19.560;2023-07-09T05:30:09;19.20;71.10
43697;DHT22;29301;47.620;19.560;2023-07-09T05:32:37;19.30;70.90
43697;DHT22;29301;47.620;19.560;2023-07-09T05:35:03;19.40;70.80
43697;DHT22;29301;47.620;19.560;2023-07-09T05:37:29;19.50;70.80
43697;DHT22;29301;47.620;19.560;2023-07-09T05:39:55;19.50;70.80
43697;DHT22;29301;47.620;19.560;2023-07-09T05:42:21;19.70;70.60
43697;DHT22;29301;47.620;19.560;2023-07-09T05:44:47;19.70;70.70
43697;DHT22;29301;47.620;19.560;2023-07-09T05:47:13;19.90;70.70
43697;DHT22;29301;47.620;19.560;2023-07-09T05:49:39;20.00;70.10
43697;DHT22;29301;47.620;19.560;2023-07-09T05:52:05;20.10;69.50
43697;DHT22;29301;47.620;19.560;2023-07-09T05:54:31;20.30;69.00
43697;DHT22;29301;47.620;19.560;2023-07-09T05:56:57;20.40;68.40
43697;DHT22;29301;47.620;19.560;2023-07-09T05:59:22;20.50;67.50
43697;DHT22;29301;47.620;19.560;2023-07-09T06:01:48;20.70;66.50
43697;DHT22;29301;47.620;19.560;2023-07-09T06:04:14;20.90;64.10
43697;DHT22;29301;47.620;19.560;2023-07-09T06:06:40;21.10;62.70
43697;DHT22;29301;47.620;19.560;2023-07-09T06:09:07;21.30;62.00
43697;DHT22;29301;47.620;19.560;2023-07-09T06:11:34;21.50;60.80
43697;DHT22;29301;47.620;19.560;2023-07-09T06:14:00;21.70;60.10
43697;DHT22;29301;47.620;19.560;2023-07-09T06:16:26;21.90;59.90
43697;DHT22;29301;47.620;19.560;2023-07-09T06:18:52;22.20;59.20
43697;DHT22;29301;47.620;19.560;2023-07-09T06:21:18;22.40;58.30
43697;DHT22;29301;47.620;19.560;2023-07-09T06:23:45;22.60;57.50
43697;DHT22;29301;47.620;19.560;2023-07-09T06:26:11;22.90;56.00
43697;DHT22;29301;47.620;19.560;2023-07-09T06:28:37;23.00;54.10
43697;DHT22;29301;47.620;19.560;2023-07-09T06:31:03;23.30;53.20
43697;DHT22;29301;47.620;19.560;2023-07-09T06:33:29;23.50;50.20
43697;DHT22;29301;47.620;19.560;2023-07-09T06:36:00;23.70;50.40
43697;DHT22;29301;47.620;19.560;2023-07-09T06:38:27;24.00;47.40
43697;DHT22;29301;47.620;19.560;2023-07-09T06:40:53;24.20;46.30
43697;DHT22;29301;47.620;19.560;2023-07-09T06:43:19;24.40;45.70
43697;DHT22;29301;47.620;19.560;2023-07-09T06:45:53;24.50;45.50
43697;DHT22;29301;47.620;19.560;2023-07-09T06:48:19;24.70;44.00
43697;DHT22;29301;47.620;19.560;2023-07-09T06:50:46;25.00;44.50
43697;DHT22;29301;47.620;19.560;2023-07-09T06:53:12;25.00;43.30
43697;DHT22;29301;47.620;19.560;2023-07-09T06:55:38;25.20;43.10
43697;DHT22;29301;47.620;19.560;2023-07-09T06:58:04;25.30;42.40
43697;DHT22;29301;47.620;19.560;2023-07-09T07:00:29;25.50;40.40
43697;DHT22;29301;47.620;19.560;2023-07-09T07:02:55;25.60;39.60
43697;DHT22;29301;47.620;19.560;2023-07-09T07:05:20;25.80;39.10
43697;DHT22;29301;47.620;19.560;2023-07-09T07:07:46;25.90;37.80
43697;DHT22;29301;47.620;19.560;2023-07-09T07:10:12;26.10;37.40
43697;DHT22;29301;47.620;19.560;2023-07-09T07:12:46;26.30;36.40
43697;DHT22;29301;47.620;19.560;2023-07-09T07:15:13;26.40;36.90
43697;DHT22;29301;47.620;19.560;2023-07-09T07:17:39;26.50;37.10
43697;DHT22;29301;47.620;19.560;2023-07-09T07:20:06;26.70;36.20
43697;DHT22;29301;47.620;19.560;2023-07-09T07:22:32;26.80;36.30
43697;DHT22;29301;47.620;19.560;2023-07-09T07:24:58;27.00;36.20
43697;DHT22;29301;47.620;19.560;2023-07-09T07:27:23;27.20;35.20
43697;DHT22;29301;47.620;19.560;2023-07-09T07:29:49;27.30;35.50
43697;DHT22;29301;47.620;19.560;2023-07-09T07:32:14;27.40;35.20
43697;DHT22;29301;47.620;19.560;2023-07-09T07:34:40;27.60;35.40
43697;DHT22;29301;47.620;19.560;2023-07-09T07:37:06;27.80;34.50
43697;DHT22;29301;47.620;19.560;2023-07-09T07:39:31;27.90;34.30
43697;DHT22;29301;47.620;19.560;2023-07-09T07:41:57;28.10;34.10
43697;DHT22;29301;47.620;19.560;2023-07-09T07:44:23;28.20;33.20
43697;DHT22;29301;47.620;19.560;2023-07-09T07:46:49;28.20;33.80
43697;DHT22;29301;47.620;19.560;2023-07-09T07:49:14;28.30;32.80
43697;DHT22;29301;47.620;19.560;2023-07-09T07:51:40;28.30;33.30
43697;DHT22;29301;47.620;19.560;2023-07-09T07:54:07;28.50;33.60
43697;DHT22;29301;47.620;19.560;2023-07-09T07:56:35;28.70;32.40
43697;DHT22;29301;47.620;19.560;2023-07-09T07:59:02;28.90;31.70
43697;DHT22;29301;47.620;19.560;2023-07-09T08:01:27;29.00;31.40
43697;DHT22;29301;47.620;19.560;2023-07-09T08:03:53;29.20;30.70
43697;DHT22;29301;47.620;19.560;2023-07-09T08:06:19;29.30;30.00
43697;DHT22;29301;47.620;19.560;2023-07-09T08:08:45;29.40;30.40
43697;DHT22;29301;47.620;19.560;2023-07-09T08:11:10;29.50;30.50
43697;DHT22;29301;47.620;19.560;2023-07-09T08:13:37;29.50;30.40
43697;DHT22;29301;47.620;19.560;2023-07-09T08:16:04;29.70;30.10
43697;DHT22;29301;47.620;19.560;2023-07-09T08:18:30;29.80;29.80
43697;DHT22;29301;47.620;19.560;2023-07-09T08:20:56;29.90;29.70
43697;DHT22;29301;47.620;19.560;2023-07-09T08:23:22;30.00;29.70
43697;DHT22;29301;47.620;19.560;2023-07-09T08:25:58;30.20;29.70
43697;DHT22;29301;47.620;19.560;2023-07-09T08:28:25;30.40;28.50
43697;DHT22;29301;47.620;19.560;2023-07-09T08:30:54;30.40;27.90
43697;DHT22;29301;47.620;19.560;2023-07-09T08:33:20;30.40;27.70
43697;DHT22;29301;47.620;19.560;2023-07-09T08:35:48;30.50;28.30
43697;DHT22;29301;47.620;19.560;2023-07-09T08:38:14;30.70;27.90
43697;DHT22;29301;47.620;19.560;2023-07-09T08:40:40;30.80;27.70
43697;DHT22;29301;47.620;19.560;2023-07-09T08:48:45;30.90;27.40
43697;DHT22;29301;47.620;19.560;2023-07-09T08:51:41;31.00;27.00
43697;DHT22;29301;47.620;19.560;2023-07-09T08:54:22;31.10;26.70
43697;DHT22;29301;47.620;19.560;2023-07-09T08:56:50;31.20;25.60
43697;DHT22;29301;47.620;19.560;2023-07-09T08:59:17;31.30;25.60
43697;DHT22;29301;47.620;19.560;2023-07-09T09:01:51;31.40;26.60
43697;DHT22;29301;47.620;19.560;2023-07-09T09:04:34;31.60;25.70
43697;DHT22;29301;47.620;19.560;2023-07-09T09:09:44;31.70;25.10
43697;DHT22;29301;47.620;19.560;2023-07-09T09:14:59;31.60;24.90
43697;DHT22;29301;47.620;19.560;2023-07-09T09:17:27;31.70;24.60
43697;DHT22;29301;47.620;19.560;2023-07-09T09:19:58;31.90;24.80
43697;DHT22;29301;47.620;19.560;2023-07-09T09:22:33;32.00;24.40
43697;DHT22;29301;47.620;19.560;2023-07-09T09:25:23;32.10;24.30
43697;DHT22;29301;47.620;19.560;2023-07-09T09:27:50;32.20;23.30
43697;DHT22;29301;47.620;19.560;2023-07-09T09:30:19;32.10;22.60
43697;DHT22;29301;47.620;19.560;2023-07-09T09:32:53;32.00;22.90
43697;DHT22;29301;47.620;19.560;2023-07-09T09:35:24;31.90;22.70
43697;DHT22;29301;47.620;19.560;2023-07-09T09:37:57;32.00;22.60
43697;DHT22;29301;47.620;19.560;2023-07-09T09:40:23;32.20;22.70
43697;DHT22;29301;47.620;19.560;2023-07-09T09:42:52;32.20;22.30
43697;DHT22;29301;47.620;19.560;2023-07-09T09:45:22;32.20;22.50
43697;DHT22;29301;47.620;19.560;2023-07-09T09:47:49;32.10;22.80
43697;DHT22;29301;47.620;19.560;2023-07-09T09:50:20;32.30;22.80
43697;DHT22;29301;47.620;19.560;2023-07-09T09:52:47;32.40;22.80
43697;DHT22;29301;47.620;19.560;2023-07-09T09:55:19;32.60;22.50
43697;DHT22;29301;47.620;19.560;2023-07-09T09:57:52;32.60;22.30
43697;DHT22;29301;47.620;19.560;2023-07-09T10:00:22;32.80;22.90
43697;DHT22;29301;47.620;19.560;2023-07-09T10:02:48;32.80;21.30
43697;DHT22;29301;47.620;19.560;2023-07-09T10:05:15;32.70;20.60
43697;DHT22;29301;47.620;19.560;2023-07-09T10:10:24;33.00;20.70
43697;DHT22;29301;47.620;19.560;2023-07-09T10:13:28;33.10;20.90
43697;DHT22;29301;47.620;19.560;2023-07-09T10:18:57;33.10;20.00
43697;DHT22;29301;47.620;19.560;2023-07-09T10:21:35;33.20;19.40
43697;DHT22;29301;47.620;19.560;2023-07-09T10:26:45;33.50;20.10
43697;DHT22;29301;47.620;19.560;2023-07-09T10:34:57;33.50;20.10
43697;DHT22;29301;47.620;19.560;2023-07-09T10:40:40;33.50;20.10
43697;DHT22;29301;47.620;19.560;2023-07-09T10:43:12;33.60;20.30
43697;DHT22;29301;47.620;19.560;2023-07-09T10:45:44;33.60;19.60
43697;DHT22;29301;47.620;19.560;2023-07-09T10:48:47;33.30;19.40
43697;DHT22;29301;47.620;19.560;2023-07-09T10:51:23;33.40;19.60
43697;DHT22;29301;47.620;19.560;2023-07-09T10:54:29;33.30;19.90
43697;DHT22;29301;47.620;19.560;2023-07-09T10:59:41;33.20;19.90
43697;DHT22;29301;47.620;19.560;2023-07-09T11:02:28;33.20;19.90
43697;DHT22;29301;47.620;19.560;2023-07-09T11:04:59;33.30;20.20
43697;DHT22;29301;47.620;19.560;2023-07-09T11:10:14;33.40;20.30
43697;DHT22;29301;47.620;19.560;2023-07-09T11:12:46;33.60;19.90
43697;DHT22;29301;47.620;19.560;2023-07-09T11:15:35;33.60;19.60
43697;DHT22;29301;47.620;19.560;2023-07-09T11:18:05;33.70;18.70
43697;DHT22;29301;47.620;19.560;2023-07-09T11:20:36;33.70;19.60
43697;DHT22;29301;47.620;19.560;2023-07-09T11:23:15;33.80;18.70
43697;DHT22;29301;47.620;19.560;2023-07-09T11:25:44;33.90;18.70
43697;DHT22;29301;47.620;19.560;2023-07-09T11:28:10;33.60;17.80
43697;DHT22;29301;47.620;19.560;2023-07-09T11:30:51;33.50;17.60
43697;DHT22;29301;47.620;19.560;2023-07-09T11:33:29;33.50;18.30
43697;DHT22;29301;47.620;19.560;2023-07-09T11:36:09;33.60;19.60
43697;DHT22;29301;47.620;19.560;2023-07-09T11:38:45;33.50;20.00
43697;DHT22;29301;47.620;19.560;2023-07-09T11:41:46;33.40;20.20
43697;DHT22;29301;47.620;19.560;2023-07-09T11:44:21;33.50;19.80
43697;DHT22;29301;47.620;19.560;2023-07-09T11:52:06;33.80;20.30
43697;DHT22;29301;47.620;19.560;2023-07-09T11:54:36;33.90;19.20
43697;DHT22;29301;47.620;19.560;2023-07-09T11:57:02;33.80;19.50
43697;DHT22;29301;47.620;19.560;2023-07-09T11:59:28;33.80;18.70
43697;DHT22;29301;47.620;19.560;2023-07-09T12:01:54;33.90;18.10
43697;DHT22;29301;47.620;19.560;2023-07-09T12:04:31;33.80;18.20
43697;DHT22;29301;47.620;19.560;2023-07-09T12:07:00;33.80;18.20
43697;DHT22;29301;47.620;19.560;2023-07-09T12:09:31;33.80;18.00
43697;DHT22;29301;47.620;19.560;2023-07-09T12:11:57;34.00;19.20
43697;DHT22;29301;47.620;19.560;2023-07-09T12:14:23;33.90;18.80
43697;DHT22;29301;47.620;19.560;2023-07-09T12:16:53;33.90;19.50
43697;DHT22;29301;47.620;19.560;2023-07-09T12:19:23;33.90;18.70
43697;DHT22;29301;47.620;19.560;2023-07-09T12:21:53;34.10;19.00
43697;DHT22;29301;47.620;19.560;2023-07-09T12:24:22;34.20;18.50
43697;DHT22;29301;47.620;19.560;2023-07-09T12:26:49;34.20;17.90
43697;DHT22;29301;47.620;19.560;2023-07-09T12:29:15;34.10;17.30
43697;DHT22;29301;47.620;19.560;2023-07-09T12:31:41;34.00;17.40
43697;DHT22;29301;47.620;19.560;2023-07-09T12:34:12;33.70;18.00
43697;DHT22;29301;47.620;19.560;2023-07-09T12:36:38;33.50;19.10
43697;DHT22;29301;47.620;19.560;2023-07-09T12:39:10;33.50;18.80
43697;DHT22;29301;47.620;19.560;2023-07-09T12:41:40;33.40;18.70
43697;DHT22;29301;47.620;19.560;2023-07-09T12:44:16;33.40;18.50
43697;DHT22;29301;47.620;19.560;2023-07-09T12:46:42;33.50;18.70
43697;DHT22;29301;47.620;19.560;2023-07-09T12:49:20;33.50;18.60
43697;DHT22;29301;47.620;19.560;2023-07-09T12:51:46;33.40;17.70
43697;DHT22;29301;47.620;19.560;2023-07-09T12:54:19;33.10;17.40
43697;DHT22;29301;47.620;19.560;2023-07-09T12:56:51;33.20;18.50
43697;DHT22;29301;47.620;19.560;2023-07-09T12:59:27;33.50;18.60
43697;DHT22;29301;47.620;19.560;2023-07-09T13:02:22;33.60;18.40
43697;DHT22;29301;47.620;19.560;2023-07-09T13:04:47;33.60;18.30
43697;DHT22;29301;47.620;19.560;2023-07-09T13:09:51;33.60;18.10
43697;DHT22;29301;47.620;19.560;2023-07-09T13:12:17;33.40;17.80
43697;DHT22;29301;47.620;19.560;2023-07-09T13:14:52;33.20;17.40
43697;DHT22;29301;47.620;19.560;2023-07-09T13:17:18;33.10;17.80
43697;DHT22;29301;47.620;19.560;2023-07-09T13:19:44;33.30;18.10
43697;DHT22;29301;47.620;19.560;2023-07-09T13:22:18;33.40;18.30
43697;DHT22;29301;47.620;19.560;2023-07-09T13:24:45;33.50;18.00
43697;DHT22;29301;47.620;19.560;2023-07-09T13:27:15;33.60;18.00
43697;DHT22;29301;47.620;19.560;2023-07-09T13:29:41;33.60;18.10
43697;DHT22;29301;47.620;19.560;2023-07-09T13:32:15;33.70;17.80
43697;DHT22;29301;47.620;19.560;2023-07-09T13:34:41;33.70;18.30
43697;DHT22;29301;47.620;19.560;2023-07-09T13:37:13;33.70;18.40
43697;DHT22;29301;47.620;19.560;2023-07-09T13:39:40;33.90;17.30
43697;DHT22;29301;47.620;19.560;2023-07-09T13:42:16;33.90;17.70
43697;DHT22;29301;47.620;19.560;2023-07-09T13:44:43;33.90;17.50
43697;DHT22;29301;47.620;19.560;2023-07-09T13:47:15;33.90;18.00
43697;DHT22;29301;47.620;19.560;2023-07-09T13:49:43;33.90;18.00
43697;DHT22;29301;47.620;19.560;2023-07-09T13:52:16;33.70;18.20
43697;DHT22;29301;47.620;19.560;2023-07-09T13:54:42;33.70;17.80
43697;DHT22;29301;47.620;19.560;2023-07-09T13:57:16;33.70;17.90
43697;DHT22;29301;47.620;19.560;2023-07-09T13:59:43;33.60;18.00
43697;DHT22;29301;47.620;19.560;2023-07-09T14:02:22;33.70;18.20
43697;DHT22;29301;47.620;19.560;2023-07-09T14:04:50;33.80;18.00
43697;DHT22;29301;47.620;19.560;2023-07-09T14:07:30;33.90;17.90
43697;DHT22;29301;47.620;19.560;2023-07-09T14:09:58;33.90;17.50
43697;DHT22;29301;47.620;19.560;2023-07-09T14:12:25;34.00;17.00
43697;DHT22;29301;47.620;19.560;2023-07-09T14:14:52;34.00;17.40
43697;DHT22;29301;47.620;19.560;2023-07-09T14:17:19;33.90;17.60
43697;DHT22;29301;47.620;19.560;2023-07-09T14:19:45;33.80;17.70
43697;DHT22;29301;47.620;19.560;2023-07-09T14:22:28;33.80;17.50
43697;DHT22;29301;47.620;19.560;2023-07-09T14:24:56;33.80;17.70
43697;DHT22;29301;47.620;19.560;2023-07-09T14:27:22;33.70;17.60
43697;DHT22;29301;47.620;19.560;2023-07-09T14:29:48;33.50;17.60
43697;DHT22;29301;47.620;19.560;2023-07-09T14:32:38;33.30;17.90
43697;DHT22;29301;47.620;19.560;2023-07-09T14:35:13;33.10;18.30
43697;DHT22;29301;47.620;19.560;2023-07-09T14:37:39;33.20;18.40
43697;DHT22;29301;47.620;19.560;2023-07-09T14:40:05;33.30;18.20
43697;DHT22;29301;47.620;19.560;2023-07-09T14:42:31;33.40;17.90
43697;DHT22;29301;47.620;19.560;2023-07-09T14:44:57;33.50;18.10
43697;DHT22;29301;47.620;19.560;2023-07-09T14:47:23;33.40;18.20
43697;DHT22;29301;47.620;19.560;2023-07-09T14:49:52;33.40;18.10
43697;DHT22;29301;47.620;19.560;2023-07-09T14:52:19;33.30;17.90
43697;DHT22;29301;47.620;19.560;2023-07-09T14:54:47;33.30;17.70
43697;DHT22;29301;47.620;19.560;2023-07-09T14:57:25;33.30;17.80
43697;DHT22;29301;47.620;19.560;2023-07-09T14:59:52;33.40;17.80
43697;DHT22;29301;47.620;19.560;2023-07-09T15:04:46;33.20;17.80
43697;DHT22;29301;47.620;19.560;2023-07-09T15:07:13;33.10;17.80
43697;DHT22;29301;47.620;19.560;2023-07-09T15:09:39;33.00;17.80
43697;DHT22;29301;47.620;19.560;2023-07-09T15:12:19;33.10;18.40
43697;DHT22;29301;47.620;19.560;2023-07-09T15:14:48;33.10;18.00
43697;DHT22;29301;47.620;19.560;2023-07-09T15:17:14;33.00;18.20
43697;DHT22;29301;47.620;19.560;2023-07-09T15:19:40;33.10;18.20
43697;DHT22;29301;47.620;19.560;2023-07-09T15:22:33;33.00;18.10
43697;DHT22;29301;47.620;19.560;2023-07-09T15:24:57;33.00;18.60
43697;DHT22;29301;47.620;19.560;2023-07-09T15:27:25;33.00;18.70
43697;DHT22;29301;47.620;19.560;2023-07-09T15:29:52;33.00;18.80
43697;DHT22;29301;47.620;19.560;2023-07-09T15:32:17;32.90;19.00
43697;DHT22;29301;47.620;19.560;2023-07-09T15:34:43;32.90;18.80
43697;DHT22;29301;47.620;19.560;2023-07-09T15:37:12;32.90;19.20
43697;DHT22;29301;47.620;19.560;2023-07-09T15:39:39;32.80;18.70
43697;DHT22;29301;47.620;19.560;2023-07-09T15:42:14;32.70;18.90
43697;DHT22;29301;47.620;19.560;2023-07-09T15:44:40;32.70;19.10
43697;DHT22;29301;47.620;19.560;2023-07-09T15:47:16;32.80;19.20
43697;DHT22;29301;47.620;19.560;2023-07-09T15:49:42;32.70;19.00
43697;DHT22;29301;47.620;19.560;2023-07-09T15:52:10;32.50;19.30
43697;DHT22;29301;47.620;19.560;2023-07-09T15:54:35;32.50;19.50
43697;DHT22;29301;47.620;19.560;2023-07-09T15:57:01;32.50;19.30
43697;DHT22;29301;47.620;19.560;2023-07-09T15:59:32;32.50;19.00
43697;DHT22;29301;47.620;19.560;2023-07-09T16:01:59;32.40;18.70
43697;DHT22;29301;47.620;19.560;2023-07-09T16:04:26;32.40;19.20
43697;DHT22;29301;47.620;19.560;2023-07-09T16:06:52;32.40;19.00
43697;DHT22;29301;47.620;19.560;2023-07-09T16:09:19;32.30;19.10
43697;DHT22;29301;47.620;19.560;2023-07-09T16:11:52;32.30;19.10
43697;DHT22;29301;47.620;19.560;2023-07-09T16:14:26;32.30;19.20
43697;DHT22;29301;47.620;19.560;2023-07-09T16:16:53;32.30;19.00
43697;DHT22;29301;47.620;19.560;2023-07-09T16:19:21;32.20;19.20
43697;DHT22;29301;47.620;19.560;2023-07-09T16:21:48;32.20;19.20